Time;durP1;ratioP1;P1;durP2;ratioP2;P2;SDS_P1;SDS_P2;PMS_P1;PMS_P2;Temp;Humidity;BMP_temperature;BMP_pressure;BME280_temperature;BME280_humidity;BME280_pressure;Samples;Min_cycle;Max_cycle;Signal;HPM_P1;HPM_P2
2021/10/21 00:02:16;;;;;;;16.67;3.38;;;;;;;;;;5002092;28;20089;-89
2021/10/21 00:04:42;;;;;;;19.33;3.65;;;;;;;;;;5031989;28;20665;-91
2021/10/21 00:07:09;;;;;;;16.77;2.97;;;;;;;;;;5003316;28;20626;-89
2021/10/21 00:09:35;;;;;;;15.65;3.33;;;;;;;;;;5000026;28;20135;-90
2021/10/21 00:12:03;;;;;;;15.23;3.47;;;;;;;;;;5017336;28;20037;-89
2021/10/21 00:14:30;;;;;;;14.32;3.88;;;;;;;;;;5019445;28;20049;-90
2021/10/21 00:16:56;;;;;;;11.85;2.83;;;;;;;;;;5020243;28;20053;-89
2021/10/21 00:19:22;;;;;;;15.85;2.95;;;;;;;;;;5035417;28;20091;-93
2021/10/21 00:21:48;;;;;;;14.75;3.05;;;;;;;;;;5016200;28;20059;-90
2021/10/21 00:24:15;;;;;;;14.88;2.90;;;;;;;;;;5018958;28;20049;-90
2021/10/21 00:26:41;;;;;;;19.00;3.15;;;;;;;;;;5020208;28;20742;-90
2021/10/21 00:29:07;;;;;;;16.73;3.10;;;;;;;;;;5035162;28;20041;-89
2021/10/21 00:31:33;;;;;;;12.85;2.80;;;;;;;;;;5005604;28;20049;-90
2021/10/21 00:34:00;;;;;;;18.17;3.03;;;;;;;;;;4999739;28;20136;-89
2021/10/21 00:36:26;;;;;;;14.38;3.58;;;;;;;;;;4999003;28;20104;-93
2021/10/21 00:38:52;;;;;;;13.65;3.15;;;;;;;;;;5008368;28;20052;-90
2021/10/21 00:41:18;;;;;;;17.13;3.40;;;;;;;;;;5036326;28;20393;-91
2021/10/21 00:43:44;;;;;;;16.30;3.45;;;;;;;;;;5021265;28;20060;-91
2021/10/21 00:46:11;;;;;;;18.33;4.35;;;;;;;;;;5037661;28;20045;-91
2021/10/21 00:48:38;;;;;;;18.00;3.70;;;;;;;;;;5021256;28;20045;-92
2021/10/21 00:51:06;;;;;;;12.52;3.67;;;;;;;;;;5021107;28;20041;-91
2021/10/21 00:53:33;;;;;;;16.42;3.63;;;;;;;;;;5037216;28;20048;-91
2021/10/21 00:55:59;;;;;;;19.83;4.35;;;;;;;;;;5018727;28;20077;-91
2021/10/21 00:58:25;;;;;;;12.20;3.35;;;;;;;;;;5019583;28;20107;-95
2021/10/21 01:00:53;;;;;;;13.43;3.83;;;;;;;;;;5035693;28;20045;-90
2021/10/21 01:03:19;;;;;;;13.00;3.70;;;;;;;;;;5019288;28;20048;-91
2021/10/21 01:05:46;;;;;;;17.90;3.72;;;;;;;;;;5020128;28;20040;-92
2021/10/21 01:08:13;;;;;;;14.68;3.88;;;;;;;;;;5020112;28;20107;-91
2021/10/21 01:10:39;;;;;;;17.67;4.07;;;;;;;;;;5020219;28;20405;-92
2021/10/21 01:13:07;;;;;;;16.95;3.95;;;;;;;;;;5037128;28;20641;-91
2021/10/21 01:15:34;;;;;;;16.90;3.80;;;;;;;;;;5001150;28;20136;-91
2021/10/21 01:18:00;;;;;;;15.52;4.00;;;;;;;;;;5001125;28;20076;-91
2021/10/21 01:20:30;;;;;;;10.70;3.70;;;;;;;;;;5000094;28;20482;-93
2021/10/21 01:22:56;;;;;;;16.98;4.20;;;;;;;;;;5018522;28;20057;-91
2021/10/21 01:25:23;;;;;;;11.20;3.70;;;;;;;;;;5001871;28;20052;-91
2021/10/21 01:27:50;;;;;;;11.57;3.88;;;;;;;;;;5016899;28;20049;-92
2021/10/21 01:30:17;;;;;;;15.38;4.40;;;;;;;;;;4999942;28;20045;-91
2021/10/21 01:32:43;;;;;;;14.20;4.40;;;;;;;;;;5015908;28;20053;-89
2021/10/21 01:35:09;;;;;;;19.77;4.30;;;;;;;;;;5030307;28;20052;-89
2021/10/21 01:37:35;;;;;;;17.85;5.07;;;;;;;;;;5001522;28;20068;-90
2021/10/21 01:40:02;;;;;;;13.75;4.53;;;;;;;;;;4982376;28;20053;-90
2021/10/21 01:42:28;;;;;;;17.08;4.72;;;;;;;;;;4979553;28;20052;-91
2021/10/21 01:44:55;;;;;;;18.58;4.88;;;;;;;;;;4996372;28;20052;-90
2021/10/21 01:47:21;;;;;;;18.15;5.50;;;;;;;;;;4997121;28;20061;-90
2021/10/21 01:49:47;;;;;;;15.95;5.45;;;;;;;;;;4998860;28;20044;-90
2021/10/21 01:52:15;;;;;;;17.42;5.97;;;;;;;;;;4987519;28;20397;-89
2021/10/21 01:54:41;;;;;;;13.57;5.57;;;;;;;;;;4997988;28;20544;-91
2021/10/21 01:57:07;;;;;;;17.55;6.25;;;;;;;;;;5019861;28;20477;-91
2021/10/21 01:59:34;;;;;;;16.60;5.97;;;;;;;;;;5019610;28;20056;-91
2021/10/21 02:02:00;;;;;;;15.70;7.22;;;;;;;;;;5019547;28;20136;-90
2021/10/21 02:04:26;;;;;;;20.80;7.40;;;;;;;;;;5004884;28;20046;-92
2021/10/21 02:06:52;;;;;;;16.05;6.75;;;;;;;;;;4998987;28;20486;-91
2021/10/21 02:09:18;;;;;;;11.38;5.43;;;;;;;;;;4991374;28;20481;-90
2021/10/21 02:11:45;;;;;;;13.88;6.30;;;;;;;;;;5018242;28;20081;-90
2021/10/21 02:14:11;;;;;;;12.20;6.20;;;;;;;;;;5001703;28;20366;-90
2021/10/21 02:16:37;;;;;;;12.30;6.80;;;;;;;;;;5017920;28;20042;-89
2021/10/21 02:19:03;;;;;;;12.50;5.72;;;;;;;;;;5019477;28;20049;-89
2021/10/21 02:21:29;;;;;;;13.40;6.55;;;;;;;;;;5001748;28;20048;-90
2021/10/21 02:23:56;;;;;;;12.63;6.18;;;;;;;;;;5000359;28;20060;-90
2021/10/21 02:26:24;;;;;;;13.60;6.60;;;;;;;;;;4998783;28;20045;-91
2021/10/21 02:28:50;;;;;;;11.95;5.85;;;;;;;;;;4981775;28;20049;-89
2021/10/21 02:31:16;;;;;;;14.27;7.10;;;;;;;;;;4982514;28;20065;-89
2021/10/21 02:33:43;;;;;;;11.63;6.13;;;;;;;;;;4986144;28;20570;-91
2021/10/21 02:36:09;;;;;;;14.05;6.43;;;;;;;;;;5001932;28;20056;-91
2021/10/21 02:38:35;;;;;;;10.52;6.10;;;;;;;;;;5015412;28;20061;-91
2021/10/21 02:41:01;;;;;;;14.00;5.53;;;;;;;;;;5038135;28;20071;-88
2021/10/21 02:43:28;;;;;;;11.05;5.90;;;;;;;;;;5037807;28;20473;-90
2021/10/21 02:45:54;;;;;;;12.02;5.50;;;;;;;;;;5038068;28;20071;-88
2021/10/21 02:48:21;;;;;;;11.13;4.30;;;;;;;;;;5007702;28;20390;-89
2021/10/21 02:50:47;;;;;;;6.40;2.42;;;;;;;;;;5002086;28;20044;-89
2021/10/21 02:53:13;;;;;;;4.20;1.65;;;;;;;;;;5038249;28;20136;-89
2021/10/21 02:55:39;;;;;;;4.28;1.30;;;;;;;;;;5031257;28;20620;-89
2021/10/21 02:58:05;;;;;;;3.42;1.48;;;;;;;;;;5022182;28;20100;-91
2021/10/21 03:00:31;;;;;;;4.40;1.27;;;;;;;;;;5036931;28;20049;-90
2021/10/21 03:02:57;;;;;;;4.10;1.27;;;;;;;;;;5016707;28;20045;-93
2021/10/21 03:05:24;;;;;;;3.80;1.20;;;;;;;;;;5037226;28;20033;-89
2021/10/21 03:07:51;;;;;;;5.38;1.50;;;;;;;;;;5020483;28;20045;-91
2021/10/21 03:10:17;;;;;;;6.55;1.33;;;;;;;;;;5016274;28;20457;-90
2021/10/21 03:12:44;;;;;;;7.15;1.50;;;;;;;;;;5030242;28;20049;-88
2021/10/21 03:15:10;;;;;;;3.25;1.10;;;;;;;;;;5002228;28;20088;-90
2021/10/21 03:17:41;;;;;;;4.82;1.10;;;;;;;;;;5017668;28;20058;-89
2021/10/21 03:20:16;;;;;;;3.60;1.10;;;;;;;;;;5003321;28;20045;-89
2021/10/21 03:22:42;;;;;;;;;;;;;;;;;;5036956;28;20742;-90
2021/10/21 03:25:09;;;;;;;5.53;1.30;;;;;;;;;;5037635;28;20011;-89
2021/10/21 03:27:36;;;;;;;4.72;0.90;;;;;;;;;;5038015;28;20142;-90
2021/10/21 03:30:03;;;;;;;3.75;1.58;;;;;;;;;;5038759;28;20183;-90
2021/10/21 03:32:29;;;;;;;3.80;1.50;;;;;;;;;;5004303;28;20057;-91
2021/10/21 03:34:55;;;;;;;5.85;1.60;;;;;;;;;;5009122;28;20045;-90
2021/10/21 03:37:21;;;;;;;6.30;1.70;;;;;;;;;;5021177;28;20107;-91
2021/10/21 03:39:50;;;;;;;6.15;1.85;;;;;;;;;;5020057;28;20045;-89
2021/10/21 03:42:19;;;;;;;7.05;2.55;;;;;;;;;;5021509;28;20127;-90
2021/10/21 03:44:45;;;;;;;3.67;1.35;;;;;;;;;;5020932;28;20052;-90
2021/10/21 03:47:12;;;;;;;4.30;1.63;;;;;;;;;;5021398;28;20033;-89
2021/10/21 03:49:38;;;;;;;4.28;1.02;;;;;;;;;;5037137;28;20091;-90
2021/10/21 03:52:05;;;;;;;8.02;1.75;;;;;;;;;;5020523;28;20045;-91
2021/10/21 03:54:31;;;;;;;5.13;1.42;;;;;;;;;;5020315;28;20374;-91
2021/10/21 03:56:58;;;;;;;1.83;1.00;;;;;;;;;;5031874;28;20041;-89
2021/10/21 03:59:24;;;;;;;1.65;0.90;;;;;;;;;;5017894;28;20057;-91
2021/10/21 04:01:53;;;;;;;1.42;0.55;;;;;;;;;;5026875;28;20045;-91
2021/10/21 04:04:19;;;;;;;1.00;0.70;;;;;;;;;;5020558;28;20392;-89
2021/10/21 04:06:45;;;;;;;2.80;0.82;;;;;;;;;;5020095;28;20045;-90
2021/10/21 04:09:11;;;;;;;1.90;0.70;;;;;;;;;;5021059;28;20056;-92
2021/10/21 04:11:38;;;;;;;4.50;1.13;;;;;;;;;;5019539;28;20064;-89
2021/10/21 04:14:04;;;;;;;2.90;0.80;;;;;;;;;;5020014;28;20572;-89
2021/10/21 04:16:30;;;;;;;1.35;0.63;;;;;;;;;;5026948;28;20048;-91
2021/10/21 04:18:56;;;;;;;3.85;0.75;;;;;;;;;;5035866;28;20076;-90
2021/10/21 04:21:22;;;;;;;1.55;0.60;;;;;;;;;;5035749;28;20045;-90
2021/10/21 04:23:49;;;;;;;2.08;0.60;;;;;;;;;;5015284;28;20540;-90
2021/10/21 04:26:15;;;;;;;1.20;0.45;;;;;;;;;;5000578;28;20049;-90
2021/10/21 04:28:41;;;;;;;1.45;0.65;;;;;;;;;;5000397;28;20068;-91
2021/10/21 04:31:07;;;;;;;4.28;0.82;;;;;;;;;;5016166;28;20041;-90
2021/10/21 04:33:33;;;;;;;3.15;1.10;;;;;;;;;;5007681;28;20073;-92
2021/10/21 04:36:00;;;;;;;4.05;0.90;;;;;;;;;;5034524;28;20087;-89
2021/10/21 04:38:26;;;;;;;2.25;0.80;;;;;;;;;;5025771;28;20111;-88
2021/10/21 04:40:52;;;;;;;1.38;0.35;;;;;;;;;;5035728;28;20696;-88
2021/10/21 04:43:18;;;;;;;0.95;0.40;;;;;;;;;;5019685;28;20489;-88
2021/10/21 04:45:44;;;;;;;1.27;0.40;;;;;;;;;;5018391;28;20053;-88
2021/10/21 04:48:10;;;;;;;1.77;0.57;;;;;;;;;;5027658;28;20112;-87
2021/10/21 04:50:36;;;;;;;2.92;0.70;;;;;;;;;;4999139;28;20044;-89
2021/10/21 04:53:03;;;;;;;3.25;0.98;;;;;;;;;;5032876;28;20036;-88
2021/10/21 04:55:34;;;;;;;1.42;0.57;;;;;;;;;;5034927;28;20059;-88
2021/10/21 04:58:01;;;;;;;3.00;0.70;;;;;;;;;;5034873;28;20052;-86
2021/10/21 05:00:27;;;;;;;2.92;0.60;;;;;;;;;;5034403;28;20477;-91
2021/10/21 05:02:53;;;;;;;2.90;0.60;;;;;;;;;;5018900;28;20052;-86
2021/10/21 05:05:19;;;;;;;3.70;0.63;;;;;;;;;;5034768;28;20124;-88
2021/10/21 05:07:45;;;;;;;3.10;0.63;;;;;;;;;;5034590;28;20040;-88
2021/10/21 05:10:11;;;;;;;4.32;0.90;;;;;;;;;;5005638;28;20457;-88
2021/10/21 05:12:37;;;;;;;8.52;1.00;;;;;;;;;;4998306;28;20067;-90
2021/10/21 05:15:04;;;;;;;6.75;0.95;;;;;;;;;;5018709;28;20114;-88
2021/10/21 05:17:30;;;;;;;4.60;0.73;;;;;;;;;;5018827;28;20095;-88
2021/10/21 05:19:56;;;;;;;4.88;1.20;;;;;;;;;;5018498;28;20524;-88
2021/10/21 05:22:22;;;;;;;4.55;0.95;;;;;;;;;;5035084;28;20052;-88
2021/10/21 05:24:48;;;;;;;6.03;1.30;;;;;;;;;;5017714;28;20508;-89
2021/10/21 05:27:14;;;;;;;4.15;0.65;;;;;;;;;;4998567;28;20115;-89
2021/10/21 05:29:41;;;;;;;2.83;0.80;;;;;;;;;;4997931;28;20049;-89
2021/10/21 05:32:07;;;;;;;4.70;0.90;;;;;;;;;;5014731;28;20091;-88
2021/10/21 05:34:34;;;;;;;4.65;0.73;;;;;;;;;;5018301;28;20135;-91
2021/10/21 05:37:01;;;;;;;6.30;0.82;;;;;;;;;;5018298;28;20049;-88
2021/10/21 05:39:27;;;;;;;3.95;0.80;;;;;;;;;;5025692;28;20408;-88
2021/10/21 05:41:53;;;;;;;7.78;1.00;;;;;;;;;;5007878;28;20049;-88
2021/10/21 05:44:19;;;;;;;5.60;0.90;;;;;;;;;;4997797;28;20398;-91
2021/10/21 05:46:48;;;;;;;5.05;0.95;;;;;;;;;;5003494;28;20099;-88
2021/10/21 05:49:14;;;;;;;5.88;0.80;;;;;;;;;;5034508;28;20103;-88
2021/10/21 05:51:40;;;;;;;7.22;1.10;;;;;;;;;;5017114;28;20037;-89
2021/10/21 05:54:06;;;;;;;6.30;1.15;;;;;;;;;;5034612;28;20136;-88
2021/10/21 05:56:32;;;;;;;6.63;0.95;;;;;;;;;;5025547;28;20536;-88
2021/10/21 05:58:58;;;;;;;9.38;1.50;;;;;;;;;;4998097;28;20666;-88
2021/10/21 06:01:24;;;;;;;11.52;1.52;;;;;;;;;;4998810;28;20163;-87
2021/10/21 06:03:50;;;;;;;10.52;1.55;;;;;;;;;;4998410;28;20049;-87
2021/10/21 06:06:17;;;;;;;8.93;1.33;;;;;;;;;;5034501;28;20045;-88
2021/10/21 06:08:45;;;;;;;8.85;1.50;;;;;;;;;;5034011;28;20052;-86
2021/10/21 06:11:11;;;;;;;7.57;1.20;;;;;;;;;;5037088;28;20041;-88
2021/10/21 06:13:37;;;;;;;12.15;1.60;;;;;;;;;;5022498;28;20044;-90
2021/10/21 06:16:04;;;;;;;10.02;1.40;;;;;;;;;;5017674;28;20045;-88
2021/10/21 06:18:30;;;;;;;14.18;3.47;;;;;;;;;;5017666;28;20053;-88
2021/10/21 06:20:56;;;;;;;5.22;1.58;;;;;;;;;;5017515;28;20045;-90
2021/10/21 06:23:25;;;;;;;7.82;1.58;;;;;;;;;;5033761;28;20453;-87
2021/10/21 06:25:51;;;;;;;9.18;1.20;;;;;;;;;;5016915;28;20071;-89
2021/10/21 06:28:17;;;;;;;10.00;1.50;;;;;;;;;;5017666;28;20084;-89
2021/10/21 06:30:46;;;;;;;5.07;1.20;;;;;;;;;;5018599;28;20083;-90
2021/10/21 06:33:12;;;;;;;7.55;1.10;;;;;;;;;;5017954;28;20048;-89
2021/10/21 06:35:39;;;;;;;8.40;1.10;;;;;;;;;;5017359;28;20481;-93
2021/10/21 06:38:06;;;;;;;10.10;1.20;;;;;;;;;;5032698;28;20053;-88
2021/10/21 06:40:32;;;;;;;4.60;0.90;;;;;;;;;;5034599;28;20053;-90
2021/10/21 06:42:58;;;;;;;9.35;1.17;;;;;;;;;;5020994;28;20176;-90
2021/10/21 06:45:24;;;;;;;6.40;1.30;;;;;;;;;;5021641;28;20051;-90
2021/10/21 06:47:50;;;;;;;6.45;1.10;;;;;;;;;;5037937;28;20045;-88
2021/10/21 06:50:16;;;;;;;7.60;1.55;;;;;;;;;;5038034;28;20481;-91
2021/10/21 06:52:45;;;;;;;5.72;1.10;;;;;;;;;;5037959;28;20090;-92
2021/10/21 06:55:13;;;;;;;9.13;1.27;;;;;;;;;;5038292;28;20091;-92
2021/10/21 06:57:50;;;;;;;8.68;1.45;;;;;;;;;;5021006;28;20048;-94
2021/10/21 07:00:17;;;;;;;7.65;1.30;;;;;;;;;;5021153;28;20041;-92
2021/10/21 07:02:43;;;;;;;7.70;1.38;;;;;;;;;;5037778;28;20041;-93
2021/10/21 07:05:13;;;;;;;7.97;1.30;;;;;;;;;;5020957;28;20053;-91
2021/10/21 07:07:40;;;;;;;2.95;0.93;;;;;;;;;;5020654;28;20041;-92
2021/10/21 07:10:06;;;;;;;9.23;1.52;;;;;;;;;;5021044;28;20469;-89
2021/10/21 07:12:36;;;;;;;3.95;1.13;;;;;;;;;;5021099;28;20045;-90
2021/10/21 07:15:03;;;;;;;8.63;1.27;;;;;;;;;;5020969;28;20049;-91
2021/10/21 07:17:29;;;;;;;6.53;1.35;;;;;;;;;;5019133;28;20049;-90
2021/10/21 07:19:55;;;;;;;5.72;1.23;;;;;;;;;;5018865;28;20124;-93
2021/10/21 07:22:22;;;;;;;9.88;1.35;;;;;;;;;;5037576;28;20428;-92
2021/10/21 07:24:48;;;;;;;8.25;1.65;;;;;;;;;;5019500;28;20045;-92
2021/10/21 07:27:14;;;;;;;4.88;0.95;;;;;;;;;;5037328;28;20047;-91
2021/10/21 07:29:43;;;;;;;2.55;0.77;;;;;;;;;;5020676;28;20653;-93
2021/10/21 07:32:09;;;;;;;5.40;1.20;;;;;;;;;;5020378;28;20044;-91
2021/10/21 07:34:36;;;;;;;2.90;0.65;;;;;;;;;;5021587;28;20049;-92
2021/10/21 07:37:02;;;;;;;4.95;0.95;;;;;;;;;;5020509;28;20400;-92
2021/10/21 07:39:28;;;;;;;3.38;1.10;;;;;;;;;;5020551;28;20558;-92
2021/10/21 07:42:00;;;;;;;5.25;1.08;;;;;;;;;;5036615;28;20526;-93
2021/10/21 07:44:27;;;;;;;4.57;0.90;;;;;;;;;;5039584;28;20564;-91
2021/10/21 07:46:53;;;;;;;2.72;0.80;;;;;;;;;;5036340;28;20111;-90
2021/10/21 07:49:19;;;;;;;2.97;0.57;;;;;;;;;;5034724;28;20125;-90
2021/10/21 07:51:48;;;;;;;4.55;0.90;;;;;;;;;;5015914;28;20041;-90
2021/10/21 07:54:14;;;;;;;2.35;0.55;;;;;;;;;;5017204;28;20052;-90
2021/10/21 07:56:42;;;;;;;1.70;0.57;;;;;;;;;;5035892;28;20124;-91
2021/10/21 07:59:16;;;;;;;3.08;0.73;;;;;;;;;;5027793;28;20119;-95
2021/10/21 08:01:42;;;;;;;2.35;0.70;;;;;;;;;;5019546;28;20049;-93
2021/10/21 08:04:09;;;;;;;2.25;0.50;;;;;;;;;;5035584;28;20536;-90
2021/10/21 08:06:36;;;;;;;4.50;0.95;;;;;;;;;;5035842;28;20075;-89
2021/10/21 08:09:03;;;;;;;4.68;0.73;;;;;;;;;;5034796;28;20543;-91
2021/10/21 08:11:30;;;;;;;6.10;1.10;;;;;;;;;;5018287;28;20845;-90
2021/10/21 08:13:56;;;;;;;2.05;0.88;;;;;;;;;;5034355;28;20060;-90
2021/10/21 08:16:22;;;;;;;2.80;0.60;;;;;;;;;;5018505;28;20131;-88
2021/10/21 08:18:48;;;;;;;4.07;0.75;;;;;;;;;;5034178;28;20040;-88
2021/10/21 08:21:15;;;;;;;7.07;1.08;;;;;;;;;;5018311;28;20353;-88
2021/10/21 08:23:41;;;;;;;7.28;0.90;;;;;;;;;;5034044;28;20049;-90
2021/10/21 08:26:07;;;;;;;6.40;0.90;;;;;;;;;;5033120;28;20477;-89
2021/10/21 08:28:34;;;;;;;4.05;1.00;;;;;;;;;;5017429;28;20500;-88
2021/10/21 08:31:00;;;;;;;6.65;1.00;;;;;;;;;;5017522;28;20701;-89
2021/10/21 08:33:26;;;;;;;4.57;0.90;;;;;;;;;;5017671;28;20045;-87
2021/10/21 08:35:52;;;;;;;5.18;1.20;;;;;;;;;;5017540;28;20041;-89
2021/10/21 08:38:18;;;;;;;7.65;1.00;;;;;;;;;;5017079;28;20103;-88
2021/10/21 08:40:45;;;;;;;4.40;1.33;;;;;;;;;;5014116;28;20079;-92
2021/10/21 08:43:11;;;;;;;6.97;1.15;;;;;;;;;;5014943;28;20049;-89
2021/10/21 08:45:37;;;;;;;5.82;0.93;;;;;;;;;;5014700;28;20136;-89
2021/10/21 08:48:04;;;;;;;10.02;1.65;;;;;;;;;;5014097;28;20045;-89
2021/10/21 08:50:33;;;;;;;3.05;0.80;;;;;;;;;;5014107;28;20139;-91
2021/10/21 08:52:59;;;;;;;7.18;1.15;;;;;;;;;;5013644;28;20136;-88
2021/10/21 08:55:25;;;;;;;3.85;1.02;;;;;;;;;;5014414;28;20057;-90
2021/10/21 08:57:51;;;;;;;5.93;0.90;;;;;;;;;;5016292;28;20053;-90
2021/10/21 09:00:18;;;;;;;4.85;1.50;;;;;;;;;;5017566;28;20041;-89
2021/10/21 09:05:24;;;;;;;4.45;0.75;;;;;;;;;;5032991;28;20430;-89
2021/10/21 09:08:09;;;;;;;4.90;1.15;;;;;;;;;;5033276;28;20128;-90
2021/10/21 09:10:49;;;;;;;2.63;0.77;;;;;;;;;;5017716;28;20067;-89
2021/10/21 09:13:38;;;;;;;8.70;1.17;;;;;;;;;;5017053;28;20045;-88
2021/10/21 09:16:09;;;;;;;7.57;1.05;;;;;;;;;;5016765;28;20115;-89
2021/10/21 09:18:43;;;;;;;7.80;1.02;;;;;;;;;;5033392;28;20075;-89
2021/10/21 09:21:09;;;;;;;5.72;1.00;;;;;;;;;;5033597;28;20047;-89
2021/10/21 09:23:35;;;;;;;4.93;1.65;;;;;;;;;;5033079;28;20055;-89
2021/10/21 09:26:11;;;;;;;5.88;1.20;;;;;;;;;;5016649;28;20321;-89
2021/10/21 09:28:37;;;;;;;9.27;1.55;;;;;;;;;;5033409;28;20049;-89
2021/10/21 09:31:05;;;;;;;8.85;1.52;;;;;;;;;;5017129;28;20037;-89
2021/10/21 09:33:47;;;;;;;4.60;1.17;;;;;;;;;;5016708;28;20049;-89
2021/10/21 09:36:17;;;;;;;7.78;1.27;;;;;;;;;;5033229;28;20501;-90
2021/10/21 09:38:48;;;;;;;5.18;1.42;;;;;;;;;;5031906;28;20049;-93
2021/10/21 09:41:15;;;;;;;8.68;1.20;;;;;;;;;;5050493;28;20084;-89
2021/10/21 09:43:41;;;;;;;7.15;1.35;;;;;;;;;;5034038;28;20129;-92
2021/10/21 09:46:27;;;;;;;3.67;1.45;;;;;;;;;;5033184;28;20650;-90
2021/10/21 09:49:12;;;;;;;6.72;0.85;;;;;;;;;;5049027;28;20051;-89
2021/10/21 09:51:38;;;;;;;6.57;1.20;;;;;;;;;;5033263;28;20485;-90
2021/10/21 09:54:04;;;;;;;6.32;1.10;;;;;;;;;;5032788;28;20037;-89
2021/10/21 09:56:30;;;;;;;6.00;1.30;;;;;;;;;;5029777;28;20118;-88
2021/10/21 09:59:06;;;;;;;10.98;1.45;;;;;;;;;;5016242;28;20449;-88
2021/10/21 10:01:35;;;;;;;4.97;1.25;;;;;;;;;;5033806;28;20053;-90
2021/10/21 10:04:03;;;;;;;5.30;1.20;;;;;;;;;;5033054;28;20397;-90
2021/10/21 10:06:29;;;;;;;6.82;0.73;;;;;;;;;;5034032;28;20572;-89
2021/10/21 10:08:56;;;;;;;3.63;0.80;;;;;;;;;;5033469;28;20079;-90
2021/10/21 10:11:22;;;;;;;7.10;1.30;;;;;;;;;;5036839;28;20037;-90
2021/10/21 10:13:53;;;;;;;12.30;2.03;;;;;;;;;;5018766;28;20037;-90
2021/10/21 10:16:19;;;;;;;11.13;1.70;;;;;;;;;;5019399;28;20044;-89
2021/10/21 10:18:46;;;;;;;5.75;1.10;;;;;;;;;;5020596;28;20053;-91
2021/10/21 10:21:19;;;;;;;10.80;1.70;;;;;;;;;;5020445;28;20041;-89
2021/10/21 10:23:53;;;;;;;9.55;1.52;;;;;;;;;;5020486;28;20048;-90
2021/10/21 10:26:38;;;;;;;5.85;1.20;;;;;;;;;;5020430;28;20512;-89
2021/10/21 10:29:04;;;;;;;7.13;1.42;;;;;;;;;;5017626;28;20656;-91
2021/10/21 10:31:41;;;;;;;11.55;2.28;;;;;;;;;;5020425;28;20049;-89
2021/10/21 10:34:30;;;;;;;6.90;1.42;;;;;;;;;;5019008;28;20049;-90
2021/10/21 10:36:56;;;;;;;11.13;1.55;;;;;;;;;;5036666;28;20045;-90
2021/10/21 10:39:44;;;;;;;12.35;1.70;;;;;;;;;;5021994;28;20057;-90
2021/10/21 10:42:10;;;;;;;5.88;1.35;;;;;;;;;;5017682;28;20072;-91
2021/10/21 10:44:36;;;;;;;7.72;1.30;;;;;;;;;;5018196;28;20128;-90
2021/10/21 10:47:03;;;;;;;7.57;1.60;;;;;;;;;;5017497;28;20044;-89
2021/10/21 10:49:41;;;;;;;8.27;1.40;;;;;;;;;;5017698;28;20394;-91
2021/10/21 10:52:12;;;;;;;7.65;1.80;;;;;;;;;;5016800;28;20042;-90
2021/10/21 10:54:47;;;;;;;9.32;1.55;;;;;;;;;;5017684;28;20095;-90
2021/10/21 10:57:14;;;;;;;5.85;1.30;;;;;;;;;;5017536;28;20127;-90
2021/10/21 10:59:42;;;;;;;10.63;1.83;;;;;;;;;;5000965;28;20085;-92
2021/10/21 11:02:31;;;;;;;9.80;1.42;;;;;;;;;;5000796;28;20092;-91
2021/10/21 11:05:04;;;;;;;7.43;1.10;;;;;;;;;;5016990;28;20440;-90
2021/10/21 11:07:47;;;;;;;8.23;1.90;;;;;;;;;;5016863;28;20049;-90
2021/10/21 11:10:19;;;;;;;9.13;1.33;;;;;;;;;;4981490;28;20078;-90
2021/10/21 11:12:52;;;;;;;6.25;1.20;;;;;;;;;;5013563;28;20046;-94
2021/10/21 11:15:33;;;;;;;7.05;2.13;;;;;;;;;;4982114;28;20058;-90
2021/10/21 11:18:03;;;;;;;5.47;1.20;;;;;;;;;;4990540;28;20056;-89
2021/10/21 11:20:29;;;;;;;5.20;1.00;;;;;;;;;;5001016;28;20085;-91
2021/10/21 11:22:56;;;;;;;10.80;1.50;;;;;;;;;;5000159;28;20057;-89
2021/10/21 11:25:32;;;;;;;7.53;0.95;;;;;;;;;;4996890;28;20092;-92
2021/10/21 11:28:00;;;;;;;7.63;1.23;;;;;;;;;;4997552;28;20064;-91
2021/10/21 11:30:33;;;;;;;5.97;0.95;;;;;;;;;;4998027;28;20543;-92
2021/10/21 11:33:00;;;;;;;7.80;1.10;;;;;;;;;;4997282;28;20050;-90
2021/10/21 11:35:28;;;;;;;4.28;1.35;;;;;;;;;;4997882;28;20054;-90
2021/10/21 11:37:55;;;;;;;4.68;0.73;;;;;;;;;;5008103;28;20049;-90
2021/10/21 11:40:29;;;;;;;5.57;0.63;;;;;;;;;;5016899;28;20052;-90
2021/10/21 11:43:00;;;;;;;3.00;0.80;;;;;;;;;;5017101;28;20055;-90
2021/10/21 11:45:34;;;;;;;3.67;0.80;;;;;;;;;;5020298;28;20048;-90
2021/10/21 11:48:02;;;;;;;2.08;0.68;;;;;;;;;;5020252;28;20124;-91
2021/10/21 11:50:34;;;;;;;2.30;0.60;;;;;;;;;;5019936;28;20059;-89
2021/10/21 11:53:00;;;;;;;4.90;0.95;;;;;;;;;;5035950;28;20048;-90
2021/10/21 11:55:27;;;;;;;3.20;0.80;;;;;;;;;;5035834;28;20080;-90
2021/10/21 11:57:54;;;;;;;4.13;0.90;;;;;;;;;;5035498;28;20076;-90
2021/10/21 12:00:28;;;;;;;4.85;0.73;;;;;;;;;;5035810;28;20087;-89
2021/10/21 12:02:59;;;;;;;2.70;0.75;;;;;;;;;;5019272;28;20083;-89
2021/10/21 12:05:29;;;;;;;3.78;1.25;;;;;;;;;;5036470;28;20128;-91
2021/10/21 12:07:56;;;;;;;2.38;1.00;;;;;;;;;;5019250;28;20053;-89
2021/10/21 12:10:41;;;;;;;3.92;1.15;;;;;;;;;;5019805;28;20139;-90
2021/10/21 12:13:07;;;;;;;;;;;;;;;;;;5019500;28;20202;-89
2021/10/21 12:15:34;;;;;;;4.07;1.42;;;;;;;;;;5036548;28;20376;-89
2021/10/21 12:18:05;;;;;;;6.25;1.00;;;;;;;;;;5035303;28;20397;-90
2021/10/21 12:20:55;;;;;;;2.80;0.65;;;;;;;;;;5019373;28;20095;-90
2021/10/21 12:23:30;;;;;;;3.92;1.42;;;;;;;;;;5036110;28;20085;-90
2021/10/21 12:25:59;;;;;;;10.13;1.70;;;;;;;;;;5035548;28;20122;-92
2021/10/21 12:28:36;;;;;;;13.13;1.70;;;;;;;;;;5019746;28;20048;-93
2021/10/21 12:31:14;;;;;;;7.88;1.55;;;;;;;;;;4999482;28;20125;-90
2021/10/21 12:33:49;;;;;;;9.20;1.80;;;;;;;;;;4999731;28;20486;-89
2021/10/21 12:36:20;;;;;;;9.98;2.50;;;;;;;;;;5002798;28;20052;-92
2021/10/21 12:38:51;;;;;;;12.27;2.67;;;;;;;;;;5017268;28;20061;-92
2021/10/21 12:41:18;;;;;;;9.15;1.90;;;;;;;;;;5018389;28;20057;-91
2021/10/21 12:43:58;;;;;;;9.80;2.08;;;;;;;;;;5035301;28;20128;-90
2021/10/21 12:46:25;;;;;;;9.82;2.22;;;;;;;;;;5035226;28;20045;-90
2021/10/21 12:49:07;;;;;;;13.13;2.17;;;;;;;;;;5018119;28;20133;-91
2021/10/21 12:51:33;;;;;;;10.82;2.40;;;;;;;;;;5035251;28;20048;-91
2021/10/21 12:53:59;;;;;;;10.38;2.10;;;;;;;;;;5034686;28;20048;-90
2021/10/21 12:56:26;;;;;;;13.15;2.22;;;;;;;;;;5026994;28;20049;-92
2021/10/21 12:59:02;;;;;;;10.10;2.83;;;;;;;;;;4987151;28;20093;-90
2021/10/21 13:01:29;;;;;;;15.70;2.63;;;;;;;;;;4990686;28;20045;-91
2021/10/21 13:03:55;;;;;;;14.73;2.65;;;;;;;;;;5015726;28;20049;-92
2021/10/21 13:06:22;;;;;;;14.43;2.70;;;;;;;;;;4998962;28;20419;-91
2021/10/21 13:08:51;;;;;;;18.02;2.53;;;;;;;;;;4999096;28;20049;-92
2021/10/21 13:11:23;;;;;;;15.65;3.05;;;;;;;;;;5014790;28;20042;-92
2021/10/21 13:13:58;;;;;;;9.57;2.08;;;;;;;;;;5015328;28;20046;-92
2021/10/21 13:16:25;;;;;;;13.43;2.90;;;;;;;;;;5015427;28;20148;-90
2021/10/21 13:18:58;;;;;;;10.95;2.00;;;;;;;;;;5027089;28;20516;-92
2021/10/21 13:21:24;;;;;;;10.00;2.08;;;;;;;;;;5035472;28;20060;-90
2021/10/21 13:23:51;;;;;;;11.02;1.80;;;;;;;;;;5018208;28;20639;-92
2021/10/21 13:26:17;;;;;;;12.77;2.25;;;;;;;;;;5002638;28;20046;-91
2021/10/21 13:28:43;;;;;;;8.50;1.60;;;;;;;;;;4995676;28;20131;-90
2021/10/21 13:31:09;;;;;;;10.68;2.25;;;;;;;;;;4994596;28;20129;-90
2021/10/21 13:33:35;;;;;;;11.20;2.30;;;;;;;;;;4998155;28;20056;-89
2021/10/21 13:36:02;;;;;;;15.57;2.45;;;;;;;;;;4990421;28;20129;-89
2021/10/21 13:38:28;;;;;;;10.30;1.92;;;;;;;;;;5000771;28;20061;-90
2021/10/21 13:40:54;;;;;;;5.15;1.35;;;;;;;;;;5014687;28;20394;-90
2021/10/21 13:43:21;;;;;;;9.88;1.92;;;;;;;;;;4998383;28;20053;-90
2021/10/21 13:45:47;;;;;;;13.70;2.42;;;;;;;;;;4980181;28;20045;-90
2021/10/21 13:48:15;;;;;;;14.18;2.53;;;;;;;;;;4994562;28;20046;-89
2021/10/21 13:50:41;;;;;;;13.25;2.70;;;;;;;;;;4979826;28;20562;-88
2021/10/21 13:53:11;;;;;;;13.63;2.65;;;;;;;;;;4981988;28;20081;-88
2021/10/21 13:55:37;;;;;;;11.88;2.92;;;;;;;;;;5003906;28;20068;-90
2021/10/21 13:58:04;;;;;;;8.05;2.03;;;;;;;;;;5001728;28;20112;-89
2021/10/21 14:00:30;;;;;;;11.52;2.20;;;;;;;;;;5002230;28;20056;-91
2021/10/21 14:02:56;;;;;;;8.63;2.13;;;;;;;;;;5018383;28;20052;-89
2021/10/21 14:05:23;;;;;;;11.93;2.60;;;;;;;;;;5018571;28;20493;-89
2021/10/21 14:07:49;;;;;;;12.57;2.22;;;;;;;;;;5003984;28;20478;-90
2021/10/21 14:10:15;;;;;;;5.47;1.70;;;;;;;;;;5002005;28;20136;-88
2021/10/21 14:12:42;;;;;;;1.85;0.90;;;;;;;;;;5018424;28;20132;-88
2021/10/21 14:15:08;;;;;;;6.68;1.65;;;;;;;;;;5001886;28;20045;-90
2021/10/21 14:17:35;;;;;;;8.68;1.23;;;;;;;;;;5002278;28;20049;-90
2021/10/21 14:20:01;;;;;;;8.60;1.45;;;;;;;;;;5018444;28;20076;-91
2021/10/21 14:22:27;;;;;;;14.90;1.85;;;;;;;;;;5001909;28;20482;-89
2021/10/21 14:24:53;;;;;;;7.32;1.55;;;;;;;;;;5001464;28;20046;-94
2021/10/21 14:27:20;;;;;;;5.07;1.23;;;;;;;;;;5002246;28;20045;-91
2021/10/21 14:29:46;;;;;;;8.73;1.73;;;;;;;;;;5002201;28;20533;-89
2021/10/21 14:32:13;;;;;;;7.53;1.55;;;;;;;;;;4993874;28;20923;-89
2021/10/21 14:34:39;;;;;;;10.45;2.10;;;;;;;;;;4990719;28;20401;-96
2021/10/21 14:37:06;;;;;;;14.60;2.13;;;;;;;;;;5004276;28;20140;-95
2021/10/21 14:39:32;;;;;;;10.38;2.00;;;;;;;;;;5018942;28;20057;-96
2021/10/21 14:41:58;;;;;;;11.13;2.70;;;;;;;;;;5014720;28;20137;-95
2021/10/21 14:44:24;;;;;;;5.15;1.80;;;;;;;;;;5019444;28;20045;-96
2021/10/21 14:46:51;;;;;;;11.20;1.70;;;;;;;;;;5019562;28;20041;-92